sensor_id;sensor_type;location;lat;lon;timestamp;P1;durP1;ratioP1;P2;durP2;ratioP2
66933;SDS011;53846;51.984;5.890;2022-08-25T00:00:42;35.83;;;34.13;;
66933;SDS011;53846;51.984;5.890;2022-08-25T00:03:12;33.88;;;32.28;;
66933;SDS011;53846;51.984;5.890;2022-08-25T00:05:42;34.65;;;32.90;;
66933;SDS011;53846;51.984;5.890;2022-08-25T00:08:11;32.45;;;30.95;;
66933;SDS011;53846;51.984;5.890;2022-08-25T00:10:40;32.67;;;31.15;;
66933;SDS011;53846;51.984;5.890;2022-08-25T00:13:09;29.45;;;28.05;;
66933;SDS011;53846;51.984;5.890;2022-08-25T00:15:38;31.05;;;29.58;;
66933;SDS011;53846;51.984;5.890;2022-08-25T00:18:10;30.30;;;28.90;;
66933;SDS011;53846;51.984;5.890;2022-08-25T00:20:39;33.25;;;31.65;;
66933;SDS011;53846;51.984;5.890;2022-08-25T00:23:08;27.80;;;26.50;;
66933;SDS011;53846;51.984;5.890;2022-08-25T00:25:37;26.95;;;25.67;;
66933;SDS011;53846;51.984;5.890;2022-08-25T00:28:06;34.50;;;32.83;;
66933;SDS011;53846;51.984;5.890;2022-08-25T00:30:35;30.13;;;28.73;;
66933;SDS011;53846;51.984;5.890;2022-08-25T00:33:05;27.85;;;26.55;;
66933;SDS011;53846;51.984;5.890;2022-08-25T00:35:38;30.17;;;28.70;;
66933;SDS011;53846;51.984;5.890;2022-08-25T00:38:09;27.98;;;26.67;;
66933;SDS011;53846;51.984;5.890;2022-08-25T00:40:41;27.90;;;26.50;;
66933;SDS011;53846;51.984;5.890;2022-08-25T00:43:11;28.13;;;26.75;;
66933;SDS011;53846;51.984;5.890;2022-08-25T00:45:43;26.38;;;25.17;;
66933;SDS011;53846;51.984;5.890;2022-08-25T00:48:12;28.20;;;26.90;;
66933;SDS011;53846;51.984;5.890;2022-08-25T00:50:43;30.65;;;29.15;;
66933;SDS011;53846;51.984;5.890;2022-08-25T00:53:12;28.77;;;27.38;;
66933;SDS011;53846;51.984;5.890;2022-08-25T00:55:42;27.95;;;26.65;;
66933;SDS011;53846;51.984;5.890;2022-08-25T00:58:12;28.20;;;26.88;;
66933;SDS011;53846;51.984;5.890;2022-08-25T01:00:45;25.70;;;24.50;;
66933;SDS011;53846;51.984;5.890;2022-08-25T01:03:17;25.67;;;24.48;;
66933;SDS011;53846;51.984;5.890;2022-08-25T01:05:49;33.30;;;31.70;;
66933;SDS011;53846;51.984;5.890;2022-08-25T01:08:19;10.65;;;10.20;;
66933;SDS011;53846;51.984;5.890;2022-08-25T01:10:52;10.27;;;9.88;;
66933;SDS011;53846;51.984;5.890;2022-08-25T01:13:23;11.63;;;11.13;;
66933;SDS011;53846;51.984;5.890;2022-08-25T01:15:54;15.15;;;14.45;;
66933;SDS011;53846;51.984;5.890;2022-08-25T01:18:25;17.90;;;17.10;;
66933;SDS011;53846;51.984;5.890;2022-08-25T01:20:57;18.13;;;17.33;;
66933;SDS011;53846;51.984;5.890;2022-08-25T01:23:27;18.17;;;17.38;;
66933;SDS011;53846;51.984;5.890;2022-08-25T01:25:57;22.13;;;21.13;;
66933;SDS011;53846;51.984;5.890;2022-08-25T01:28:32;20.10;;;19.20;;
66933;SDS011;53846;51.984;5.890;2022-08-25T01:31:02;22.98;;;21.90;;
66933;SDS011;53846;51.984;5.890;2022-08-25T01:33:32;24.13;;;23.02;;
66933;SDS011;53846;51.984;5.890;2022-08-25T01:36:03;20.50;;;19.55;;
66933;SDS011;53846;51.984;5.890;2022-08-25T01:38:32;21.23;;;20.23;;
66933;SDS011;53846;51.984;5.890;2022-08-25T01:41:02;22.40;;;21.17;;
66933;SDS011;53846;51.984;5.890;2022-08-25T01:43:34;20.33;;;19.42;;
66933;SDS011;53846;51.984;5.890;2022-08-25T01:46:05;23.40;;;22.20;;
66933;SDS011;53846;51.984;5.890;2022-08-25T01:48:34;23.20;;;22.10;;
66933;SDS011;53846;51.984;5.890;2022-08-25T01:51:05;22.17;;;21.08;;
66933;SDS011;53846;51.984;5.890;2022-08-25T01:53:34;23.05;;;21.95;;
66933;SDS011;53846;51.984;5.890;2022-08-25T01:56:10;22.83;;;21.73;;
66933;SDS011;53846;51.984;5.890;2022-08-25T01:58:43;24.58;;;23.30;;
66933;SDS011;53846;51.984;5.890;2022-08-25T02:01:15;27.05;;;25.75;;
66933;SDS011;53846;51.984;5.890;2022-08-25T02:03:46;22.05;;;21.05;;
66933;SDS011;53846;51.984;5.890;2022-08-25T02:06:20;22.20;;;21.20;;
66933;SDS011;53846;51.984;5.890;2022-08-25T02:08:57;19.90;;;19.00;;
66933;SDS011;53846;51.984;5.890;2022-08-25T02:11:29;19.27;;;18.38;;
66933;SDS011;53846;51.984;5.890;2022-08-25T02:13:59;21.45;;;20.45;;
66933;SDS011;53846;51.984;5.890;2022-08-25T02:16:30;20.25;;;19.35;;
66933;SDS011;53846;51.984;5.890;2022-08-25T02:19:00;20.00;;;19.10;;
66933;SDS011;53846;51.984;5.890;2022-08-25T02:21:34;17.35;;;16.55;;
66933;SDS011;53846;51.984;5.890;2022-08-25T02:24:04;12.18;;;11.57;;
66933;SDS011;53846;51.984;5.890;2022-08-25T02:26:34;13.13;;;12.52;;
66933;SDS011;53846;51.984;5.890;2022-08-25T02:29:04;13.13;;;12.52;;
66933;SDS011;53846;51.984;5.890;2022-08-25T02:31:34;11.38;;;10.88;;
66933;SDS011;53846;51.984;5.890;2022-08-25T02:34:05;11.55;;;11.05;;
66933;SDS011;53846;51.984;5.890;2022-08-25T02:36:38;12.32;;;11.45;;
66933;SDS011;53846;51.984;5.890;2022-08-25T02:39:07;9.57;;;9.18;;
66933;SDS011;53846;51.984;5.890;2022-08-25T02:41:38;9.50;;;9.10;;
66933;SDS011;53846;51.984;5.890;2022-08-25T02:44:08;9.80;;;9.30;;
66933;SDS011;53846;51.984;5.890;2022-08-25T02:46:37;9.63;;;9.13;;
66933;SDS011;53846;51.984;5.890;2022-08-25T02:49:06;9.45;;;9.05;;
66933;SDS011;53846;51.984;5.890;2022-08-25T02:51:38;9.07;;;8.68;;
66933;SDS011;53846;51.984;5.890;2022-08-25T02:54:07;8.65;;;8.25;;
66933;SDS011;53846;51.984;5.890;2022-08-25T02:56:36;7.93;;;7.63;;
66933;SDS011;53846;51.984;5.890;2022-08-25T02:59:07;8.18;;;7.85;;
66933;SDS011;53846;51.984;5.890;2022-08-25T03:01:36;8.27;;;7.95;;
66933;SDS011;53846;51.984;5.890;2022-08-25T03:04:05;7.97;;;7.68;;
66933;SDS011;53846;51.984;5.890;2022-08-25T03:06:34;8.82;;;8.43;;
66933;SDS011;53846;51.984;5.890;2022-08-25T03:09:06;8.98;;;8.48;;
66933;SDS011;53846;51.984;5.890;2022-08-25T03:11:35;8.38;;;7.97;;
66933;SDS011;53846;51.984;5.890;2022-08-25T03:14:04;8.02;;;7.72;;
66933;SDS011;53846;51.984;5.890;2022-08-25T03:16:34;8.73;;;8.35;;
66933;SDS011;53846;51.984;5.890;2022-08-25T03:19:03;8.82;;;8.43;;
66933;SDS011;53846;51.984;5.890;2022-08-25T03:21:32;8.90;;;8.50;;
66933;SDS011;53846;51.984;5.890;2022-08-25T03:24:03;9.32;;;8.73;;
66933;SDS011;53846;51.984;5.890;2022-08-25T03:26:35;8.48;;;8.13;;
66933;SDS011;53846;51.984;5.890;2022-08-25T03:29:16;9.13;;;8.73;;
66933;SDS011;53846;51.984;5.890;2022-08-25T03:31:46;9.35;;;8.95;;
66933;SDS011;53846;51.984;5.890;2022-08-25T03:34:16;9.50;;;9.05;;
66933;SDS011;53846;51.984;5.890;2022-08-25T03:36:47;9.10;;;8.70;;
66933;SDS011;53846;51.984;5.890;2022-08-25T03:39:22;26.58;;;25.38;;
66933;SDS011;53846;51.984;5.890;2022-08-25T03:41:53;11.63;;;11.02;;
66933;SDS011;53846;51.984;5.890;2022-08-25T03:44:22;8.73;;;8.32;;
66933;SDS011;53846;51.984;5.890;2022-08-25T03:46:51;8.75;;;8.38;;
66933;SDS011;53846;51.984;5.890;2022-08-25T03:49:21;7.97;;;7.68;;
66933;SDS011;53846;51.984;5.890;2022-08-25T03:51:52;8.88;;;8.48;;
66933;SDS011;53846;51.984;5.890;2022-08-25T03:54:24;9.00;;;8.60;;
66933;SDS011;53846;51.984;5.890;2022-08-25T03:56:53;9.00;;;8.60;;
66933;SDS011;53846;51.984;5.890;2022-08-25T03:59:22;9.48;;;9.07;;
66933;SDS011;53846;51.984;5.890;2022-08-25T04:01:51;9.43;;;9.02;;
66933;SDS011;53846;51.984;5.890;2022-08-25T04:04:21;10.57;;;10.07;;
66933;SDS011;53846;51.984;5.890;2022-08-25T04:06:50;9.63;;;9.23;;
66933;SDS011;53846;51.984;5.890;2022-08-25T04:09:19;11.57;;;11.00;;
66933;SDS011;53846;51.984;5.890;2022-08-25T04:11:51;12.55;;;11.73;;
66933;SDS011;53846;51.984;5.890;2022-08-25T04:14:20;12.05;;;11.50;;
66933;SDS011;53846;51.984;5.890;2022-08-25T04:16:50;12.00;;;11.50;;
66933;SDS011;53846;51.984;5.890;2022-08-25T04:19:20;14.07;;;13.48;;
66933;SDS011;53846;51.984;5.890;2022-08-25T04:21:49;16.80;;;16.00;;
66933;SDS011;53846;51.984;5.890;2022-08-25T04:24:19;15.20;;;14.50;;
66933;SDS011;53846;51.984;5.890;2022-08-25T04:26:51;18.05;;;17.25;;
66933;SDS011;53846;51.984;5.890;2022-08-25T04:29:21;18.92;;;18.10;;
66933;SDS011;53846;51.984;5.890;2022-08-25T04:31:52;19.48;;;18.58;;
66933;SDS011;53846;51.984;5.890;2022-08-25T04:34:23;21.63;;;20.63;;
66933;SDS011;53846;51.984;5.890;2022-08-25T04:36:53;21.77;;;20.77;;
66933;SDS011;53846;51.984;5.890;2022-08-25T04:39:23;22.80;;;21.75;;
66933;SDS011;53846;51.984;5.890;2022-08-25T04:41:54;24.70;;;23.50;;
66933;SDS011;53846;51.984;5.890;2022-08-25T04:44:25;27.83;;;26.52;;
66933;SDS011;53846;51.984;5.890;2022-08-25T04:46:54;29.73;;;28.33;;
66933;SDS011;53846;51.984;5.890;2022-08-25T04:49:23;31.88;;;30.38;;
66933;SDS011;53846;51.984;5.890;2022-08-25T04:51:53;31.30;;;29.83;;
66933;SDS011;53846;51.984;5.890;2022-08-25T04:54:22;36.22;;;34.53;;
66933;SDS011;53846;51.984;5.890;2022-08-25T04:56:55;16.00;;;15.30;;
66933;SDS011;53846;51.984;5.890;2022-08-25T04:59:24;15.02;;;14.32;;
66933;SDS011;53846;51.984;5.890;2022-08-25T05:01:54;22.63;;;21.52;;
66933;SDS011;53846;51.984;5.890;2022-08-25T05:04:26;25.65;;;24.45;;
66933;SDS011;53846;51.984;5.890;2022-08-25T05:06:55;31.23;;;29.67;;
66933;SDS011;53846;51.984;5.890;2022-08-25T05:09:25;36.15;;;34.45;;
66933;SDS011;53846;51.984;5.890;2022-08-25T05:11:57;41.17;;;39.08;;
66933;SDS011;53846;51.984;5.890;2022-08-25T05:14:26;56.90;;;54.10;;
66933;SDS011;53846;51.984;5.890;2022-08-25T05:16:55;56.20;;;53.40;;
66933;SDS011;53846;51.984;5.890;2022-08-25T05:19:25;59.70;;;56.80;;
66933;SDS011;53846;51.984;5.890;2022-08-25T05:21:54;62.65;;;59.65;;
66933;SDS011;53846;51.984;5.890;2022-08-25T05:24:23;67.90;;;64.65;;
66933;SDS011;53846;51.984;5.890;2022-08-25T05:26:56;76.57;;;72.90;;
66933;SDS011;53846;51.984;5.890;2022-08-25T05:29:25;86.38;;;82.18;;
66933;SDS011;53846;51.984;5.890;2022-08-25T05:31:54;86.97;;;82.80;;
66933;SDS011;53846;51.984;5.890;2022-08-25T05:34:23;85.72;;;81.53;;
66933;SDS011;53846;51.984;5.890;2022-08-25T05:36:53;81.85;;;77.90;;
66933;SDS011;53846;51.984;5.890;2022-08-25T05:39:24;86.03;;;81.90;;
66933;SDS011;53846;51.984;5.890;2022-08-25T05:41:59;84.97;;;80.90;;
66933;SDS011;53846;51.984;5.890;2022-08-25T05:44:28;86.22;;;82.10;;
66933;SDS011;53846;51.984;5.890;2022-08-25T05:46:57;90.53;;;86.05;;
66933;SDS011;53846;51.984;5.890;2022-08-25T05:49:26;91.50;;;87.10;;
66933;SDS011;53846;51.984;5.890;2022-08-25T05:51:55;92.65;;;88.25;;
66933;SDS011;53846;51.984;5.890;2022-08-25T05:54:24;86.13;;;81.97;;
66933;SDS011;53846;51.984;5.890;2022-08-25T05:56:53;95.10;;;90.43;;
66933;SDS011;53846;51.984;5.890;2022-08-25T05:59:25;93.35;;;88.88;;
66933;SDS011;53846;51.984;5.890;2022-08-25T06:01:55;101.07;;;96.20;;
66933;SDS011;53846;51.984;5.890;2022-08-25T06:04:36;105.95;;;100.82;;
66933;SDS011;53846;51.984;5.890;2022-08-25T06:07:05;107.80;;;102.55;;
66933;SDS011;53846;51.984;5.890;2022-08-25T06:09:36;115.20;;;109.68;;
66933;SDS011;53846;51.984;5.890;2022-08-25T06:12:05;105.82;;;100.72;;
66933;SDS011;53846;51.984;5.890;2022-08-25T06:14:38;105.18;;;100.10;;
66933;SDS011;53846;51.984;5.890;2022-08-25T06:17:07;110.55;;;105.22;;
66933;SDS011;53846;51.984;5.890;2022-08-25T06:19:36;108.63;;;103.38;;
66933;SDS011;53846;51.984;5.890;2022-08-25T06:22:05;95.75;;;91.15;;
66933;SDS011;53846;51.984;5.890;2022-08-25T06:24:34;104.00;;;99.00;;
66933;SDS011;53846;51.984;5.890;2022-08-25T06:27:03;107.18;;;102.05;;
66933;SDS011;53846;51.984;5.890;2022-08-25T06:29:32;98.95;;;94.20;;
66933;SDS011;53846;51.984;5.890;2022-08-25T06:32:04;98.45;;;93.75;;
66933;SDS011;53846;51.984;5.890;2022-08-25T06:34:33;95.30;;;90.72;;
66933;SDS011;53846;51.984;5.890;2022-08-25T06:37:03;84.78;;;80.53;;
66933;SDS011;53846;51.984;5.890;2022-08-25T06:39:32;83.05;;;79.05;;
66933;SDS011;53846;51.984;5.890;2022-08-25T06:42:01;79.97;;;76.15;;
66933;SDS011;53846;51.984;5.890;2022-08-25T06:44:30;76.28;;;72.47;;
66933;SDS011;53846;51.984;5.890;2022-08-25T06:46:59;67.93;;;64.63;;
66933;SDS011;53846;51.984;5.890;2022-08-25T06:49:31;59.88;;;56.97;;
66933;SDS011;53846;51.984;5.890;2022-08-25T06:52:00;50.53;;;48.03;;
66933;SDS011;53846;51.984;5.890;2022-08-25T06:54:29;43.20;;;41.13;;
66933;SDS011;53846;51.984;5.890;2022-08-25T06:56:58;39.53;;;37.63;;
66933;SDS011;53846;51.984;5.890;2022-08-25T06:59:27;33.30;;;31.70;;
66933;SDS011;53846;51.984;5.890;2022-08-25T07:01:56;23.08;;;21.92;;
66933;SDS011;53846;51.984;5.890;2022-08-25T07:04:26;19.35;;;18.40;;
66933;SDS011;53846;51.984;5.890;2022-08-25T07:06:58;17.40;;;16.60;;
66933;SDS011;53846;51.984;5.890;2022-08-25T07:09:27;15.82;;;15.13;;
66933;SDS011;53846;51.984;5.890;2022-08-25T07:11:56;11.48;;;10.98;;
66933;SDS011;53846;51.984;5.890;2022-08-25T07:14:27;11.63;;;11.02;;
66933;SDS011;53846;51.984;5.890;2022-08-25T07:16:56;13.52;;;12.27;;
66933;SDS011;53846;51.984;5.890;2022-08-25T07:19:25;11.07;;;10.43;;
66933;SDS011;53846;51.984;5.890;2022-08-25T07:21:54;9.27;;;8.88;;
66933;SDS011;53846;51.984;5.890;2022-08-25T07:24:26;8.00;;;7.70;;
66933;SDS011;53846;51.984;5.890;2022-08-25T07:26:55;8.43;;;8.02;;
66933;SDS011;53846;51.984;5.890;2022-08-25T07:29:25;7.88;;;7.53;;
66933;SDS011;53846;51.984;5.890;2022-08-25T07:31:57;11.02;;;10.32;;
66933;SDS011;53846;51.984;5.890;2022-08-25T07:34:26;10.70;;;10.23;;
66933;SDS011;53846;51.984;5.890;2022-08-25T07:37:10;9.43;;;9.02;;
66933;SDS011;53846;51.984;5.890;2022-08-25T07:39:39;10.13;;;9.68;;
66933;SDS011;53846;51.984;5.890;2022-08-25T07:42:10;12.63;;;12.02;;
66933;SDS011;53846;51.984;5.890;2022-08-25T07:44:41;14.45;;;13.80;;
66933;SDS011;53846;51.984;5.890;2022-08-25T07:47:10;15.27;;;14.57;;
66933;SDS011;53846;51.984;5.890;2022-08-25T07:49:40;18.15;;;17.35;;
66933;SDS011;53846;51.984;5.890;2022-08-25T07:52:12;17.58;;;16.77;;
66933;SDS011;53846;51.984;5.890;2022-08-25T07:54:41;22.55;;;21.55;;
66933;SDS011;53846;51.984;5.890;2022-08-25T07:57:10;21.70;;;20.65;;
66933;SDS011;53846;51.984;5.890;2022-08-25T07:59:39;20.75;;;19.80;;
66933;SDS011;53846;51.984;5.890;2022-08-25T08:02:09;23.20;;;22.10;;
66933;SDS011;53846;51.984;5.890;2022-08-25T08:04:40;25.65;;;24.42;;
66933;SDS011;53846;51.984;5.890;2022-08-25T08:07:14;24.95;;;23.75;;
66933;SDS011;53846;51.984;5.890;2022-08-25T08:09:43;27.02;;;25.77;;
66933;SDS011;53846;51.984;5.890;2022-08-25T08:12:13;31.10;;;29.63;;
66933;SDS011;53846;51.984;5.890;2022-08-25T08:14:42;30.23;;;28.75;;
66933;SDS011;53846;51.984;5.890;2022-08-25T08:17:11;35.50;;;33.78;;
66933;SDS011;53846;51.984;5.890;2022-08-25T08:19:40;36.65;;;34.80;;
66933;SDS011;53846;51.984;5.890;2022-08-25T08:22:10;35.03;;;33.38;;
66933;SDS011;53846;51.984;5.890;2022-08-25T08:24:42;43.53;;;41.45;;
66933;SDS011;53846;51.984;5.890;2022-08-25T08:27:12;38.22;;;36.42;;
66933;SDS011;53846;51.984;5.890;2022-08-25T08:29:41;47.30;;;44.95;;
66933;SDS011;53846;51.984;5.890;2022-08-25T08:32:11;44.92;;;42.75;;
66933;SDS011;53846;51.984;5.890;2022-08-25T08:34:42;52.53;;;49.95;;
66933;SDS011;53846;51.984;5.890;2022-08-25T08:37:14;51.60;;;48.97;;
66933;SDS011;53846;51.984;5.890;2022-08-25T08:39:43;54.00;;;51.40;;
66933;SDS011;53846;51.984;5.890;2022-08-25T08:42:16;68.38;;;65.03;;
66933;SDS011;53846;51.984;5.890;2022-08-25T08:45:01;70.90;;;67.40;;
66933;SDS011;53846;51.984;5.890;2022-08-25T08:47:37;74.65;;;71.00;;
66933;SDS011;53846;51.984;5.890;2022-08-25T08:50:17;87.70;;;83.43;;
66933;SDS011;53846;51.984;5.890;2022-08-25T08:52:59;62.08;;;58.50;;
66933;SDS011;53846;51.984;5.890;2022-08-25T08:55:33;58.35;;;55.40;;
66933;SDS011;53846;51.984;5.890;2022-08-25T08:58:05;53.30;;;50.67;;
66933;SDS011;53846;51.984;5.890;2022-08-25T09:00:39;50.47;;;47.97;;
66933;SDS011;53846;51.984;5.890;2022-08-25T09:03:15;48.70;;;46.33;;
66933;SDS011;53846;51.984;5.890;2022-08-25T09:05:58;40.95;;;38.95;;
66933;SDS011;53846;51.984;5.890;2022-08-25T09:08:33;41.40;;;39.38;;
66933;SDS011;53846;51.984;5.890;2022-08-25T09:11:06;29.52;;;27.98;;
66933;SDS011;53846;51.984;5.890;2022-08-25T09:13:43;27.27;;;25.92;;
66933;SDS011;53846;51.984;5.890;2022-08-25T09:16:27;19.58;;;18.67;;
66933;SDS011;53846;51.984;5.890;2022-08-25T09:19:22;20.15;;;19.17;;
66933;SDS011;53846;51.984;5.890;2022-08-25T09:22:01;17.60;;;16.75;;
66933;SDS011;53846;51.984;5.890;2022-08-25T09:24:45;13.32;;;12.73;;
66933;SDS011;53846;51.984;5.890;2022-08-25T09:27:24;11.10;;;10.60;;
66933;SDS011;53846;51.984;5.890;2022-08-25T09:30:04;10.48;;;9.98;;
66933;SDS011;53846;51.984;5.890;2022-08-25T09:32:36;9.45;;;9.05;;
66933;SDS011;53846;51.984;5.890;2022-08-25T09:35:08;9.25;;;8.85;;
66933;SDS011;53846;51.984;5.890;2022-08-25T09:37:51;10.70;;;10.20;;
66933;SDS011;53846;51.984;5.890;2022-08-25T09:40:26;10.90;;;10.40;;
66933;SDS011;53846;51.984;5.890;2022-08-25T09:42:58;11.70;;;11.18;;
66933;SDS011;53846;51.984;5.890;2022-08-25T09:45:32;12.80;;;12.25;;
66933;SDS011;53846;51.984;5.890;2022-08-25T09:48:18;13.18;;;12.57;;
66933;SDS011;53846;51.984;5.890;2022-08-25T09:50:49;14.10;;;13.50;;
66933;SDS011;53846;51.984;5.890;2022-08-25T09:53:21;16.80;;;16.00;;
66933;SDS011;53846;51.984;5.890;2022-08-25T09:55:55;16.80;;;16.08;;
66933;SDS011;53846;51.984;5.890;2022-08-25T09:58:30;18.15;;;17.35;;
66933;SDS011;53846;51.984;5.890;2022-08-25T10:01:03;18.10;;;17.15;;
66933;SDS011;53846;51.984;5.890;2022-08-25T10:03:52;16.27;;;15.57;;
66933;SDS011;53846;51.984;5.890;2022-08-25T10:06:24;18.58;;;17.70;;
66933;SDS011;53846;51.984;5.890;2022-08-25T10:08:57;18.13;;;17.23;;
66933;SDS011;53846;51.984;5.890;2022-08-25T10:11:34;18.25;;;17.35;;
66933;SDS011;53846;51.984;5.890;2022-08-25T10:14:14;19.05;;;18.17;;
66933;SDS011;53846;51.984;5.890;2022-08-25T10:16:46;63.72;;;60.33;;
66933;SDS011;53846;51.984;5.890;2022-08-25T10:19:23;27.65;;;26.33;;
66933;SDS011;53846;51.984;5.890;2022-08-25T10:22:01;27.10;;;25.80;;
66933;SDS011;53846;51.984;5.890;2022-08-25T10:24:37;32.63;;;31.00;;
66933;SDS011;53846;51.984;5.890;2022-08-25T10:27:13;33.30;;;31.63;;
66933;SDS011;53846;51.984;5.890;2022-08-25T10:29:53;40.55;;;38.45;;
66933;SDS011;53846;51.984;5.890;2022-08-25T10:32:38;36.42;;;34.60;;
66933;SDS011;53846;51.984;5.890;2022-08-25T10:35:23;46.83;;;44.40;;
66933;SDS011;53846;51.984;5.890;2022-08-25T10:38:00;71.97;;;68.25;;
66933;SDS011;53846;51.984;5.890;2022-08-25T10:40:39;78.20;;;74.15;;
66933;SDS011;53846;51.984;5.890;2022-08-25T10:43:16;94.50;;;89.60;;
66933;SDS011;53846;51.984;5.890;2022-08-25T10:45:55;108.75;;;102.95;;
66933;SDS011;53846;51.984;5.890;2022-08-25T10:48:34;138.80;;;131.27;;
66933;SDS011;53846;51.984;5.890;2022-08-25T10:51:26;171.85;;;162.93;;
66933;SDS011;53846;51.984;5.890;2022-08-25T10:54:04;193.38;;;183.30;;
66933;SDS011;53846;51.984;5.890;2022-08-25T10:56:39;229.77;;;217.85;;
66933;SDS011;53846;51.984;5.890;2022-08-25T10:59:15;214.30;;;203.20;;
66933;SDS011;53846;51.984;5.890;2022-08-25T11:01:59;219.23;;;207.80;;
66933;SDS011;53846;51.984;5.890;2022-08-25T11:04:40;234.48;;;222.20;;
66933;SDS011;53846;51.984;5.890;2022-08-25T11:07:15;228.35;;;216.32;;
66933;SDS011;53846;51.984;5.890;2022-08-25T11:09:50;262.85;;;248.98;;
66933;SDS011;53846;51.984;5.890;2022-08-25T11:12:24;276.52;;;262.08;;
66933;SDS011;53846;51.984;5.890;2022-08-25T11:15:01;279.33;;;264.55;;
66933;SDS011;53846;51.984;5.890;2022-08-25T11:17:38;293.00;;;277.55;;
66933;SDS011;53846;51.984;5.890;2022-08-25T11:20:13;279.95;;;264.98;;
66933;SDS011;53846;51.984;5.890;2022-08-25T11:22:45;276.42;;;261.60;;
66933;SDS011;53846;51.984;5.890;2022-08-25T11:25:20;273.15;;;258.52;;
66933;SDS011;53846;51.984;5.890;2022-08-25T11:27:56;289.20;;;273.70;;
66933;SDS011;53846;51.984;5.890;2022-08-25T11:30:31;271.35;;;256.83;;
66933;SDS011;53846;51.984;5.890;2022-08-25T11:33:00;301.70;;;285.58;;
66933;SDS011;53846;51.984;5.890;2022-08-25T11:35:30;248.18;;;234.63;;
66933;SDS011;53846;51.984;5.890;2022-08-25T11:38:07;324.27;;;306.73;;
66933;SDS011;53846;51.984;5.890;2022-08-25T11:40:49;313.58;;;296.55;;
66933;SDS011;53846;51.984;5.890;2022-08-25T11:43:31;298.85;;;282.63;;
66933;SDS011;53846;51.984;5.890;2022-08-25T11:46:21;315.75;;;298.63;;
66933;SDS011;53846;51.984;5.890;2022-08-25T11:49:02;297.58;;;281.20;;
66933;SDS011;53846;51.984;5.890;2022-08-25T11:51:47;355.73;;;336.13;;
66933;SDS011;53846;51.984;5.890;2022-08-25T11:54:19;352.70;;;333.35;;
66933;SDS011;53846;51.984;5.890;2022-08-25T11:56:54;341.25;;;322.55;;
66933;SDS011;53846;51.984;5.890;2022-08-25T12:02:41;359.20;;;339.48;;
66933;SDS011;53846;51.984;5.890;2022-08-25T12:14:16;359.92;;;340.00;;
66933;SDS011;53846;51.984;5.890;2022-08-25T12:17:05;370.60;;;350.13;;
66933;SDS011;53846;51.984;5.890;2022-08-25T12:19:51;364.00;;;343.73;;
66933;SDS011;53846;51.984;5.890;2022-08-25T12:25:28;358.90;;;338.88;;
66933;SDS011;53846;51.984;5.890;2022-08-25T12:28:05;363.65;;;343.27;;
66933;SDS011;53846;51.984;5.890;2022-08-25T12:30:45;320.58;;;302.63;;
66933;SDS011;53846;51.984;5.890;2022-08-25T12:33:23;372.05;;;351.08;;
66933;SDS011;53846;51.984;5.890;2022-08-25T12:36:04;377.92;;;356.63;;
66933;SDS011;53846;51.984;5.890;2022-08-25T12:38:36;356.33;;;336.33;;
66933;SDS011;53846;51.984;5.890;2022-08-25T12:41:09;312.45;;;294.90;;
66933;SDS011;53846;51.984;5.890;2022-08-25T12:43:41;370.85;;;349.88;;
66933;SDS011;53846;51.984;5.890;2022-08-25T12:49:10;351.40;;;331.35;;
66933;SDS011;53846;51.984;5.890;2022-08-25T12:52:00;375.25;;;353.98;;
66933;SDS011;53846;51.984;5.890;2022-08-25T12:54:38;374.63;;;353.10;;
66933;SDS011;53846;51.984;5.890;2022-08-25T12:57:21;381.42;;;359.73;;
66933;SDS011;53846;51.984;5.890;2022-08-25T12:59:57;386.42;;;364.27;;
66933;SDS011;53846;51.984;5.890;2022-08-25T13:02:47;354.52;;;334.63;;
66933;SDS011;53846;51.984;5.890;2022-08-25T13:08:30;385.50;;;363.73;;
66933;SDS011;53846;51.984;5.890;2022-08-25T13:11:16;391.98;;;369.92;;
66933;SDS011;53846;51.984;5.890;2022-08-25T13:13:51;376.33;;;355.25;;
66933;SDS011;53846;51.984;5.890;2022-08-25T13:16:28;380.90;;;359.60;;
66933;SDS011;53846;51.984;5.890;2022-08-25T13:19:01;391.35;;;369.35;;
66933;SDS011;53846;51.984;5.890;2022-08-25T13:21:34;394.15;;;371.65;;
66933;SDS011;53846;51.984;5.890;2022-08-25T13:24:08;364.38;;;343.77;;
66933;SDS011;53846;51.984;5.890;2022-08-25T13:26:42;384.55;;;362.73;;
66933;SDS011;53846;51.984;5.890;2022-08-25T13:29:13;349.35;;;329.40;;
66933;SDS011;53846;51.984;5.890;2022-08-25T13:31:51;363.00;;;342.45;;
66933;SDS011;53846;51.984;5.890;2022-08-25T13:34:23;376.27;;;354.77;;
66933;SDS011;53846;51.984;5.890;2022-08-25T13:36:55;375.67;;;354.35;;
66933;SDS011;53846;51.984;5.890;2022-08-25T13:39:39;367.02;;;346.17;;
66933;SDS011;53846;51.984;5.890;2022-08-25T13:42:11;302.60;;;285.25;;
66933;SDS011;53846;51.984;5.890;2022-08-25T13:44:42;320.90;;;302.60;;
66933;SDS011;53846;51.984;5.890;2022-08-25T13:47:12;284.55;;;268.30;;
66933;SDS011;53846;51.984;5.890;2022-08-25T13:49:44;387.75;;;365.33;;
66933;SDS011;53846;51.984;5.890;2022-08-25T13:52:16;362.00;;;341.08;;
66933;SDS011;53846;51.984;5.890;2022-08-25T13:54:55;289.80;;;273.45;;
66933;SDS011;53846;51.984;5.890;2022-08-25T13:57:26;293.95;;;277.20;;
66933;SDS011;53846;51.984;5.890;2022-08-25T13:59:59;324.92;;;306.42;;
66933;SDS011;53846;51.984;5.890;2022-08-25T14:02:38;285.00;;;268.70;;
66933;SDS011;53846;51.984;5.890;2022-08-25T14:05:11;253.23;;;238.77;;
66933;SDS011;53846;51.984;5.890;2022-08-25T14:07:51;335.33;;;315.88;;
66933;SDS011;53846;51.984;5.890;2022-08-25T14:10:33;268.75;;;253.23;;
66933;SDS011;53846;51.984;5.890;2022-08-25T14:13:08;324.48;;;305.75;;
66933;SDS011;53846;51.984;5.890;2022-08-25T14:15:40;340.95;;;321.17;;
66933;SDS011;53846;51.984;5.890;2022-08-25T14:18:13;351.42;;;331.02;;
66933;SDS011;53846;51.984;5.890;2022-08-25T14:20:48;369.85;;;348.35;;
66933;SDS011;53846;51.984;5.890;2022-08-25T14:23:19;381.52;;;359.35;;
66933;SDS011;53846;51.984;5.890;2022-08-25T14:25:54;242.82;;;228.70;;
66933;SDS011;53846;51.984;5.890;2022-08-25T14:28:25;261.63;;;246.48;;
66933;SDS011;53846;51.984;5.890;2022-08-25T14:30:57;256.90;;;242.02;;
66933;SDS011;53846;51.984;5.890;2022-08-25T14:33:29;232.75;;;219.15;;
66933;SDS011;53846;51.984;5.890;2022-08-25T14:36:00;153.18;;;144.80;;
66933;SDS011;53846;51.984;5.890;2022-08-25T14:38:30;158.35;;;149.60;;
66933;SDS011;53846;51.984;5.890;2022-08-25T14:41:06;153.27;;;144.85;;
66933;SDS011;53846;51.984;5.890;2022-08-25T14:43:35;167.73;;;158.45;;
66933;SDS011;53846;51.984;5.890;2022-08-25T14:46:06;187.40;;;177.07;;
66933;SDS011;53846;51.984;5.890;2022-08-25T14:48:39;144.15;;;136.10;;
66933;SDS011;53846;51.984;5.890;2022-08-25T14:51:11;145.07;;;137.05;;
66933;SDS011;53846;51.984;5.890;2022-08-25T14:53:42;171.43;;;161.95;;
66933;SDS011;53846;51.984;5.890;2022-08-25T14:56:14;125.57;;;118.70;;
66933;SDS011;53846;51.984;5.890;2022-08-25T14:58:43;84.60;;;80.05;;
66933;SDS011;53846;51.984;5.890;2022-08-25T15:01:12;183.63;;;173.55;;
66933;SDS011;53846;51.984;5.890;2022-08-25T15:03:44;176.10;;;166.43;;
66933;SDS011;53846;51.984;5.890;2022-08-25T15:06:15;200.90;;;189.95;;
66933;SDS011;53846;51.984;5.890;2022-08-25T15:08:45;216.07;;;204.35;;